Time;durP1;ratioP1;P1;durP2;ratioP2;P2;SDS_P1;SDS_P2;PMS_P1;PMS_P2;Temp;Humidity;BMP_temperature;BMP_pressure;BME280_temperature;BME280_humidity;BME280_pressure;Samples;Min_cycle;Max_cycle;Signal;HPM_P1;HPM_P2
2021/12/23 00:00:12;;;;;;;8.98;3.47;;;;;;;;;;4911077;29;20417;-68
2021/12/23 00:02:43;;;;;;;7.63;3.70;;;;;;;;;;4895558;29;20512;-65
2021/12/23 00:05:13;;;;;;;11.35;3.88;;;;;;;;;;4896432;29;20067;-66
2021/12/23 00:07:43;;;;;;;11.80;3.03;;;;;;;;;;4952695;28;20066;-67
2021/12/23 00:10:13;;;;;;;7.28;3.35;;;;;;;;;;4914576;29;20060;-68
2021/12/23 00:12:46;;;;;;;8.35;3.22;;;;;;;;;;4914558;29;20060;-66
2021/12/23 00:17:59;;;;;;;11.98;4.13;;;;;;;;;;4933196;29;20424;-67
2021/12/23 00:23:27;;;;;;;7.97;3.70;;;;;;;;;;4933559;29;20052;-66
2021/12/23 00:26:01;;;;;;;6.22;3.30;;;;;;;;;;4911618;29;20075;-66
2021/12/23 00:28:32;;;;;;;8.73;4.38;;;;;;;;;;4876614;29;20418;-66
2021/12/23 00:31:04;;;;;;;13.13;4.20;;;;;;;;;;4895274;29;20196;-66
2021/12/23 00:33:39;;;;;;;8.02;4.00;;;;;;;;;;4894109;29;20060;-66
2021/12/23 00:36:12;;;;;;;6.97;3.92;;;;;;;;;;4895061;29;20090;-69
2021/12/23 00:38:48;;;;;;;8.85;4.10;;;;;;;;;;4911727;29;20096;-70
2021/12/23 00:41:20;;;;;;;8.82;4.35;;;;;;;;;;4914071;29;20067;-68
2021/12/23 00:43:50;;;;;;;17.70;4.90;;;;;;;;;;4963596;28;20793;-66
2021/12/23 00:46:21;;;;;;;10.38;3.92;;;;;;;;;;4971205;28;20055;-66
2021/12/23 00:48:51;;;;;;;7.60;4.50;;;;;;;;;;4972114;28;20438;-67
2021/12/23 00:51:21;;;;;;;11.55;4.28;;;;;;;;;;5006158;28;20777;-66
2021/12/23 00:54:02;;;;;;;9.23;4.85;;;;;;;;;;4970814;28;20087;-66
2021/12/23 00:56:34;;;;;;;15.18;4.40;;;;;;;;;;4976149;28;20042;-66
2021/12/23 00:59:08;;;;;;;8.75;4.35;;;;;;;;;;4990407;28;20065;-66
2021/12/23 01:01:39;;;;;;;7.07;3.67;;;;;;;;;;4990467;28;20058;-66
2021/12/23 01:04:10;;;;;;;7.43;3.75;;;;;;;;;;4970579;28;20055;-66
2021/12/23 01:06:40;;;;;;;7.57;4.28;;;;;;;;;;4971201;28;20063;-66
2021/12/23 01:09:11;;;;;;;10.40;3.95;;;;;;;;;;4917759;29;20053;-66
2021/12/23 01:11:41;;;;;;;6.60;3.97;;;;;;;;;;4912801;29;20505;-66
2021/12/23 01:17:12;;;;;;;10.70;4.07;;;;;;;;;;4913481;29;20052;-68
2021/12/23 01:19:49;;;;;;;10.75;4.65;;;;;;;;;;4893968;29;20053;-67
2021/12/23 01:22:20;;;;;;;12.60;4.47;;;;;;;;;;4875490;29;20068;-67
2021/12/23 01:24:52;;;;;;;9.77;3.80;;;;;;;;;;4868972;29;20065;-66
2021/12/23 01:27:23;;;;;;;9.32;3.80;;;;;;;;;;4875073;29;20052;-69
2021/12/23 01:29:53;;;;;;;9.68;3.67;;;;;;;;;;4875190;29;20049;-66
2021/12/23 01:32:23;;;;;;;8.60;3.63;;;;;;;;;;4910641;29;20059;-66
2021/12/23 01:34:54;;;;;;;7.75;3.08;;;;;;;;;;4891587;29;20059;-65
2021/12/23 01:37:25;;;;;;;9.60;3.40;;;;;;;;;;4912358;29;20516;-68
2021/12/23 01:39:55;;;;;;;7.25;3.70;;;;;;;;;;4912601;29;20424;-66
2021/12/23 01:42:25;;;;;;;7.00;3.47;;;;;;;;;;4892733;29;20047;-67
2021/12/23 01:44:56;;;;;;;11.95;3.60;;;;;;;;;;4926627;29;20055;-67
2021/12/23 01:47:26;;;;;;;7.25;3.42;;;;;;;;;;4930214;29;20059;-66
2021/12/23 01:49:56;;;;;;;7.53;3.88;;;;;;;;;;4924484;29;20056;-67
2021/12/23 01:52:27;;;;;;;8.45;3.03;;;;;;;;;;4929987;29;20047;-67
2021/12/23 01:54:58;;;;;;;8.98;3.50;;;;;;;;;;4931092;29;20054;-67
2021/12/23 01:57:32;;;;;;;7.95;3.38;;;;;;;;;;4945338;28;20058;-68
2021/12/23 02:00:08;;;;;;;8.27;3.15;;;;;;;;;;4921911;29;20055;-66
2021/12/23 02:02:43;;;;;;;9.88;3.83;;;;;;;;;;4891913;29;20041;-78
2021/12/23 02:05:14;;;;;;;7.38;3.60;;;;;;;;;;4893210;29;20079;-66
2021/12/23 02:07:45;;;;;;;9.88;4.13;;;;;;;;;;4922137;29;20683;-66
2021/12/23 02:10:15;;;;;;;12.60;3.75;;;;;;;;;;4889224;29;20417;-67
2021/12/23 02:12:49;;;;;;;8.10;3.13;;;;;;;;;;4900676;29;20056;-67
2021/12/23 02:15:21;;;;;;;7.95;3.80;;;;;;;;;;4917028;29;20056;-68
2021/12/23 02:17:53;;;;;;;16.05;3.50;;;;;;;;;;4903154;29;20060;-67
2021/12/23 02:20:28;;;;;;;7.82;3.33;;;;;;;;;;4892905;29;20044;-69
2021/12/23 02:22:59;;;;;;;7.43;3.50;;;;;;;;;;4889635;29;20171;-67
2021/12/23 02:25:30;;;;;;;10.68;3.67;;;;;;;;;;4892208;29;20472;-65
2021/12/23 02:28:07;;;;;;;7.93;3.05;;;;;;;;;;4861283;29;20131;-67
2021/12/23 02:30:39;;;;;;;6.60;3.45;;;;;;;;;;4891355;29;20056;-68
2021/12/23 02:33:10;;;;;;;9.23;3.75;;;;;;;;;;4889027;29;20086;-67
2021/12/23 02:35:41;;;;;;;8.32;3.83;;;;;;;;;;4874032;29;20438;-67
2021/12/23 02:38:12;;;;;;;8.85;3.20;;;;;;;;;;4899952;29;20059;-70
2021/12/23 02:40:44;;;;;;;8.38;3.47;;;;;;;;;;4941862;28;20159;-67
2021/12/23 02:43:23;;;;;;;9.50;3.28;;;;;;;;;;4983782;28;20058;-67
2021/12/23 02:45:57;;;;;;;7.93;3.55;;;;;;;;;;4961835;28;20062;-73
2021/12/23 02:48:32;;;;;;;12.85;4.00;;;;;;;;;;4994444;28;20054;-66
2021/12/23 02:51:08;;;;;;;10.52;4.38;;;;;;;;;;4938189;28;20678;-67
2021/12/23 02:53:41;;;;;;;9.85;3.45;;;;;;;;;;4929963;29;20062;-73
2021/12/23 02:56:16;;;;;;;10.95;3.70;;;;;;;;;;4930756;29;20056;-68
2021/12/23 02:58:47;;;;;;;8.40;3.78;;;;;;;;;;4959617;28;20058;-69
2021/12/23 03:01:19;;;;;;;8.93;3.72;;;;;;;;;;4969238;28;20065;-69
2021/12/23 03:03:51;;;;;;;8.80;4.32;;;;;;;;;;4979508;28;20595;-66
2021/12/23 03:06:22;;;;;;;8.85;4.20;;;;;;;;;;4914885;29;20624;-66
2021/12/23 03:09:00;;;;;;;10.00;3.92;;;;;;;;;;4892552;29;20056;-67
2021/12/23 03:11:32;;;;;;;8.65;4.18;;;;;;;;;;4911657;29;20521;-66
2021/12/23 03:14:03;;;;;;;11.73;3.30;;;;;;;;;;4911095;29;20508;-66
2021/12/23 03:16:37;;;;;;;8.70;3.63;;;;;;;;;;4930481;29;20066;-67
2021/12/23 03:19:09;;;;;;;9.68;3.67;;;;;;;;;;4919514;29;20060;-68
2021/12/23 03:21:39;;;;;;;7.40;3.30;;;;;;;;;;4911929;29;20068;-67
2021/12/23 03:24:09;;;;;;;7.40;3.60;;;;;;;;;;4930575;29;20424;-66
2021/12/23 03:26:40;;;;;;;8.05;3.47;;;;;;;;;;4892485;29;20048;-67
2021/12/23 03:29:11;;;;;;;9.57;3.72;;;;;;;;;;4892863;29;20453;-70
2021/12/23 03:31:41;;;;;;;15.63;4.03;;;;;;;;;;4892339;29;20057;-67
2021/12/23 03:34:12;;;;;;;8.50;3.78;;;;;;;;;;4890704;29;20053;-68
2021/12/23 03:36:42;;;;;;;8.73;3.83;;;;;;;;;;4895457;29;20101;-67
2021/12/23 03:39:13;;;;;;;12.38;3.72;;;;;;;;;;4881118;29;20064;-67
2021/12/23 03:41:42;;;;;;;7.03;3.33;;;;;;;;;;4874188;29;20049;-67
2021/12/23 03:44:13;;;;;;;6.90;3.50;;;;;;;;;;4881653;29;20290;-67
2021/12/23 03:46:44;;;;;;;7.93;3.85;;;;;;;;;;4896355;29;20072;-67
2021/12/23 03:49:14;;;;;;;7.00;3.00;;;;;;;;;;4926363;29;20067;-66
2021/12/23 03:51:44;;;;;;;10.93;3.65;;;;;;;;;;4933635;29;20051;-66
2021/12/23 03:54:15;;;;;;;9.43;3.28;;;;;;;;;;4914540;29;20067;-67
2021/12/23 03:56:46;;;;;;;9.77;4.50;;;;;;;;;;4883259;29;20458;-67
2021/12/23 03:59:17;;;;;;;8.73;3.40;;;;;;;;;;4952420;28;20077;-68
2021/12/23 04:01:47;;;;;;;7.95;3.63;;;;;;;;;;4952896;28;20055;-67
2021/12/23 04:04:18;;;;;;;7.32;3.42;;;;;;;;;;4928126;29;20070;-66
2021/12/23 04:06:48;;;;;;;8.80;3.00;;;;;;;;;;4933603;29;20060;-67
2021/12/23 04:09:19;;;;;;;10.88;3.13;;;;;;;;;;4932457;29;20062;-68
2021/12/23 04:11:49;;;;;;;13.00;3.50;;;;;;;;;;4928296;29;20079;-71
2021/12/23 04:14:20;;;;;;;6.90;3.38;;;;;;;;;;4942455;28;20055;-67
2021/12/23 04:16:51;;;;;;;9.18;2.78;;;;;;;;;;4952486;28;20047;-70
2021/12/23 04:19:27;;;;;;;8.23;3.83;;;;;;;;;;4961897;28;20073;-68
2021/12/23 04:21:58;;;;;;;7.22;2.50;;;;;;;;;;4951978;29;20070;-68
2021/12/23 04:24:29;;;;;;;7.72;2.83;;;;;;;;;;4952628;29;20504;-67
2021/12/23 04:26:59;;;;;;;10.52;3.17;;;;;;;;;;4952422;29;20066;-68
2021/12/23 04:29:29;;;;;;;7.53;2.88;;;;;;;;;;4942162;29;20068;-68
2021/12/23 04:32:00;;;;;;;7.25;3.13;;;;;;;;;;4943400;29;20055;-67
2021/12/23 04:34:30;;;;;;;6.35;2.78;;;;;;;;;;4952037;29;20407;-67
2021/12/23 04:37:02;;;;;;;9.25;2.55;;;;;;;;;;4962252;28;20062;-67
2021/12/23 04:39:32;;;;;;;10.55;3.50;;;;;;;;;;4971534;28;20403;-67
2021/12/23 04:42:02;;;;;;;9.15;2.55;;;;;;;;;;4971209;28;20059;-67
2021/12/23 04:44:32;;;;;;;7.63;3.60;;;;;;;;;;4920080;28;20428;-68
2021/12/23 04:47:03;;;;;;;8.43;3.10;;;;;;;;;;4952312;28;20063;-68
2021/12/23 04:49:34;;;;;;;10.93;3.42;;;;;;;;;;4952446;29;20423;-70
2021/12/23 04:52:04;;;;;;;6.97;3.00;;;;;;;;;;4952037;29;20503;-68
2021/12/23 04:54:34;;;;;;;8.88;2.72;;;;;;;;;;4948217;29;20052;-68
2021/12/23 04:57:06;;;;;;;7.80;3.00;;;;;;;;;;4970927;28;20055;-67
2021/12/23 04:59:37;;;;;;;7.65;2.72;;;;;;;;;;4979555;28;20050;-67
2021/12/23 05:02:07;;;;;;;9.85;4.07;;;;;;;;;;4938817;28;20396;-67
2021/12/23 05:04:37;;;;;;;6.70;2.45;;;;;;;;;;4922994;28;20059;-69
2021/12/23 05:07:08;;;;;;;6.75;2.50;;;;;;;;;;4970865;28;20069;-70
2021/12/23 05:09:38;;;;;;;9.95;3.13;;;;;;;;;;4970911;28;20059;-68
2021/12/23 05:12:09;;;;;;;8.30;2.85;;;;;;;;;;4970694;28;20086;-67
2021/12/23 05:14:40;;;;;;;10.70;2.67;;;;;;;;;;4961255;28;20393;-68
2021/12/23 05:17:10;;;;;;;11.13;2.90;;;;;;;;;;4931719;29;20182;-68
2021/12/23 05:19:41;;;;;;;6.88;2.88;;;;;;;;;;4932462;29;20056;-68
2021/12/23 05:22:15;;;;;;;10.70;3.50;;;;;;;;;;4922673;29;20056;-68
2021/12/23 05:24:45;;;;;;;9.57;4.20;;;;;;;;;;4913157;29;20424;-67
2021/12/23 05:27:16;;;;;;;8.57;2.72;;;;;;;;;;4931739;29;20074;-71
2021/12/23 05:29:46;;;;;;;6.32;2.53;;;;;;;;;;4912743;29;20064;-68
2021/12/23 05:32:17;;;;;;;6.55;2.70;;;;;;;;;;4912993;29;20056;-68
2021/12/23 05:34:47;;;;;;;8.70;2.67;;;;;;;;;;4869750;29;20056;-69
2021/12/23 05:37:17;;;;;;;12.45;2.67;;;;;;;;;;4912674;29;20071;-69
2021/12/23 05:39:48;;;;;;;7.80;2.72;;;;;;;;;;4932224;29;20063;-68
2021/12/23 05:42:19;;;;;;;7.18;2.67;;;;;;;;;;4932076;29;20068;-67
2021/12/23 05:44:49;;;;;;;9.52;2.92;;;;;;;;;;4916295;29;20052;-67
2021/12/23 05:47:22;;;;;;;5.65;2.50;;;;;;;;;;4932022;29;20070;-68
2021/12/23 05:49:53;;;;;;;7.30;2.53;;;;;;;;;;4902181;29;20543;-67
2021/12/23 05:52:23;;;;;;;5.88;2.70;;;;;;;;;;4878845;29;20056;-69
2021/12/23 05:54:56;;;;;;;8.60;2.90;;;;;;;;;;4903827;29;20060;-68
2021/12/23 05:57:25;;;;;;;;;;;;;;;;;;4912637;29;20056;-68
2021/12/23 05:59:56;;;;;;;11.20;2.53;;;;;;;;;;4912205;29;19923;-69
2021/12/23 06:02:26;;;;;;;9.90;2.72;;;;;;;;;;4915839;29;20043;-67
2021/12/23 06:04:57;;;;;;;9.90;2.60;;;;;;;;;;4960708;28;20050;-68
2021/12/23 06:07:28;;;;;;;8.93;2.60;;;;;;;;;;4970005;28;20111;-68
2021/12/23 06:09:58;;;;;;;9.07;2.95;;;;;;;;;;4969477;28;20091;-68
2021/12/23 06:12:28;;;;;;;7.78;2.60;;;;;;;;;;4912030;29;20055;-71
2021/12/23 06:14:59;;;;;;;8.05;2.45;;;;;;;;;;4950490;29;20059;-68
2021/12/23 06:17:30;;;;;;;12.32;2.63;;;;;;;;;;4950358;29;20063;-68
2021/12/23 06:20:00;;;;;;;8.95;2.83;;;;;;;;;;4916490;29;20050;-68
2021/12/23 06:22:33;;;;;;;5.82;2.90;;;;;;;;;;4950973;28;20062;-69
2021/12/23 06:25:07;;;;;;;6.65;2.80;;;;;;;;;;4950199;29;20059;-68
2021/12/23 06:27:38;;;;;;;6.15;2.55;;;;;;;;;;4949996;29;20052;-68
2021/12/23 06:30:18;;;;;;;9.13;2.72;;;;;;;;;;4952181;28;20062;-68
2021/12/23 06:32:54;;;;;;;6.25;2.55;;;;;;;;;;4950024;29;20066;-68
2021/12/23 06:35:28;;;;;;;6.15;2.33;;;;;;;;;;4950172;29;20058;-69
2021/12/23 06:38:08;;;;;;;10.82;2.67;;;;;;;;;;4951435;28;20051;-68
2021/12/23 06:40:40;;;;;;;6.30;2.83;;;;;;;;;;4927626;29;20053;-68
2021/12/23 06:43:11;;;;;;;7.78;2.85;;;;;;;;;;4936016;29;20059;-69
2021/12/23 06:45:41;;;;;;;8.63;2.63;;;;;;;;;;4931043;29;20060;-68
2021/12/23 06:48:12;;;;;;;7.40;3.33;;;;;;;;;;4931060;29;20062;-68
2021/12/23 06:50:43;;;;;;;9.27;2.90;;;;;;;;;;4911656;29;20551;-67
2021/12/23 06:53:15;;;;;;;7.35;2.80;;;;;;;;;;4911164;29;20056;-72
2021/12/23 06:55:45;;;;;;;6.82;2.78;;;;;;;;;;4911882;29;20056;-68
2021/12/23 06:58:15;;;;;;;10.85;3.00;;;;;;;;;;4925929;29;20063;-68
2021/12/23 07:00:46;;;;;;;6.30;2.65;;;;;;;;;;4916536;29;20065;-68
2021/12/23 07:03:17;;;;;;;8.27;2.88;;;;;;;;;;4925498;29;20075;-69
2021/12/23 07:05:56;;;;;;;7.90;2.85;;;;;;;;;;4931027;29;20059;-69
2021/12/23 07:08:28;;;;;;;8.52;3.25;;;;;;;;;;4932022;29;20067;-68
2021/12/23 07:10:59;;;;;;;6.78;2.42;;;;;;;;;;4921124;29;20064;-68
2021/12/23 07:13:29;;;;;;;7.00;2.80;;;;;;;;;;4915924;29;20048;-68
2021/12/23 07:16:01;;;;;;;8.32;2.63;;;;;;;;;;4928253;29;20091;-68
2021/12/23 07:18:32;;;;;;;11.85;2.58;;;;;;;;;;4945532;29;20039;-69
2021/12/23 07:21:02;;;;;;;7.22;3.05;;;;;;;;;;4953626;29;20059;-68
2021/12/23 07:23:32;;;;;;;8.27;2.72;;;;;;;;;;4953521;29;20051;-68
2021/12/23 07:26:03;;;;;;;6.97;2.72;;;;;;;;;;4953849;29;20055;-70
2021/12/23 07:28:34;;;;;;;5.50;2.85;;;;;;;;;;4953544;29;20047;-68
2021/12/23 07:31:04;;;;;;;7.45;3.13;;;;;;;;;;4933843;29;20051;-68
2021/12/23 07:33:35;;;;;;;9.35;2.85;;;;;;;;;;4934016;29;20055;-68
2021/12/23 07:36:07;;;;;;;8.13;2.92;;;;;;;;;;4918577;29;20067;-68
2021/12/23 07:38:37;;;;;;;8.30;3.30;;;;;;;;;;4934322;29;20051;-68
2021/12/23 07:41:07;;;;;;;6.75;2.90;;;;;;;;;;4934023;29;20055;-71
2021/12/23 07:46:09;;;;;;;4.68;2.47;;;;;;;;;;4933642;29;20535;-68
2021/12/23 07:48:41;;;;;;;9.38;3.00;;;;;;;;;;4934059;29;20599;-68
2021/12/23 07:51:11;;;;;;;6.15;2.80;;;;;;;;;;4933598;29;20055;-69
2021/12/23 07:53:41;;;;;;;9.45;2.92;;;;;;;;;;4934187;29;20067;-69
2021/12/23 07:56:11;;;;;;;6.97;2.95;;;;;;;;;;4914391;29;20107;-70
2021/12/23 07:58:42;;;;;;;8.75;2.83;;;;;;;;;;4933316;29;20063;-70
2021/12/23 08:01:12;;;;;;;5.75;2.92;;;;;;;;;;4932118;29;20052;-68
2021/12/23 08:03:43;;;;;;;7.25;3.08;;;;;;;;;;4914733;29;20204;-68
2021/12/23 08:06:13;;;;;;;5.95;2.75;;;;;;;;;;4902097;29;20055;-68
2021/12/23 08:08:44;;;;;;;5.78;2.58;;;;;;;;;;4914251;29;20096;-68
2021/12/23 08:11:15;;;;;;;6.80;3.08;;;;;;;;;;4914410;29;20477;-69
2021/12/23 08:13:45;;;;;;;8.30;3.33;;;;;;;;;;4914346;29;20414;-69
2021/12/23 08:16:16;;;;;;;6.97;3.67;;;;;;;;;;4914412;29;20064;-70
2021/12/23 08:18:46;;;;;;;8.52;2.60;;;;;;;;;;4914142;29;20067;-69
2021/12/23 08:21:18;;;;;;;5.53;3.15;;;;;;;;;;4932283;29;20060;-69
2021/12/23 08:23:48;;;;;;;9.32;2.72;;;;;;;;;;4942563;28;20051;-69
2021/12/23 08:26:22;;;;;;;9.15;2.72;;;;;;;;;;4936591;28;20059;-68
2021/12/23 08:28:52;;;;;;;6.70;2.53;;;;;;;;;;4932849;29;20056;-68
2021/12/23 08:31:24;;;;;;;6.32;2.78;;;;;;;;;;4932994;29;20071;-69
2021/12/23 08:33:55;;;;;;;7.93;2.55;;;;;;;;;;4932978;29;20075;-69
2021/12/23 08:36:25;;;;;;;8.18;2.60;;;;;;;;;;4935408;29;20071;-69
2021/12/23 08:38:55;;;;;;;6.78;3.13;;;;;;;;;;4936440;28;20311;-69
2021/12/23 08:41:27;;;;;;;6.93;2.55;;;;;;;;;;4932661;29;20456;-69
2021/12/23 08:43:57;;;;;;;9.95;2.90;;;;;;;;;;4932841;29;20059;-69
2021/12/23 08:46:27;;;;;;;7.00;2.90;;;;;;;;;;4923099;29;20060;-68
2021/12/23 08:48:58;;;;;;;10.20;2.67;;;;;;;;;;4875992;29;20052;-69
2021/12/23 08:51:33;;;;;;;6.05;2.67;;;;;;;;;;4861280;29;20533;-69
2021/12/23 08:54:05;;;;;;;10.40;3.10;;;;;;;;;;4876177;29;20064;-69
2021/12/23 08:56:35;;;;;;;9.77;3.53;;;;;;;;;;4876371;29;20053;-69
2021/12/23 08:59:06;;;;;;;7.22;3.05;;;;;;;;;;4865342;29;20069;-71
2021/12/23 09:01:39;;;;;;;5.35;2.45;;;;;;;;;;4875965;29;20061;-70
2021/12/23 09:04:10;;;;;;;6.25;3.15;;;;;;;;;;4875834;29;20060;-72
2021/12/23 09:06:41;;;;;;;5.72;2.25;;;;;;;;;;4905221;29;20056;-71
2021/12/23 09:09:11;;;;;;;5.95;2.42;;;;;;;;;;4882113;29;20060;-70
2021/12/23 09:11:42;;;;;;;6.95;2.80;;;;;;;;;;4875742;29;20418;-70
2021/12/23 09:14:13;;;;;;;5.90;2.08;;;;;;;;;;4876055;29;20622;-69
2021/12/23 09:16:43;;;;;;;5.53;2.08;;;;;;;;;;4894011;29;20060;-69
2021/12/23 09:19:14;;;;;;;5.75;2.05;;;;;;;;;;4914101;29;20063;-69
2021/12/23 09:21:44;;;;;;;6.88;2.38;;;;;;;;;;4912608;29;20058;-69
2021/12/23 09:24:15;;;;;;;5.20;1.52;;;;;;;;;;4950238;28;20511;-69
2021/12/23 09:26:53;;;;;;;5.60;1.92;;;;;;;;;;4960665;28;20570;-70
2021/12/23 09:34:57;;;;;;;7.55;2.05;;;;;;;;;;4948636;29;20043;-70
2021/12/23 09:37:28;;;;;;;6.45;2.05;;;;;;;;;;4935593;29;20111;-69
2021/12/23 09:40:02;;;;;;;6.90;2.20;;;;;;;;;;4927001;29;20078;-69
2021/12/23 09:42:34;;;;;;;7.60;2.40;;;;;;;;;;4955625;28;20054;-70
2021/12/23 09:45:11;;;;;;;9.50;2.20;;;;;;;;;;4921793;29;20055;-68
2021/12/23 09:47:41;;;;;;;4.40;1.92;;;;;;;;;;4928050;29;20063;-69
2021/12/23 09:50:17;;;;;;;4.57;2.40;;;;;;;;;;4903470;28;20147;-71
2021/12/23 09:52:51;;;;;;;7.93;2.20;;;;;;;;;;4894056;29;20528;-71
2021/12/23 09:55:25;;;;;;;6.15;2.40;;;;;;;;;;4916555;29;20056;-70
2021/12/23 09:57:58;;;;;;;7.82;2.40;;;;;;;;;;4912236;29;20060;-68
2021/12/23 10:00:31;;;;;;;7.68;2.40;;;;;;;;;;4881351;29;20052;-68
2021/12/23 10:03:03;;;;;;;13.00;2.60;;;;;;;;;;4875072;29;20124;-69
2021/12/23 10:05:36;;;;;;;9.65;2.35;;;;;;;;;;4857343;29;20088;-70
2021/12/23 10:08:09;;;;;;;13.73;2.00;;;;;;;;;;4856543;29;20057;-69
2021/12/23 10:10:55;;;;;;;5.60;1.67;;;;;;;;;;4904172;29;20052;-68
2021/12/23 10:31:06;;;;;;;5.82;1.45;;;;;;;;;;4912264;29;20052;-68
2021/12/23 10:38:50;;;;;;;3.53;1.30;;;;;;;;;;4883875;29;20084;-69
2021/12/23 10:41:26;;;;;;;5.50;1.33;;;;;;;;;;4931032;29;20059;-68
2021/12/23 10:44:03;;;;;;;4.30;1.27;;;;;;;;;;4934636;29;20044;-69
2021/12/23 10:46:40;;;;;;;8.15;1.42;;;;;;;;;;4934723;29;20091;-68
2021/12/23 10:52:10;;;;;;;5.88;1.35;;;;;;;;;;4937731;29;20059;-70
2021/12/23 11:00:22;;;;;;;4.10;1.17;;;;;;;;;;4949628;29;20063;-67
2021/12/23 11:03:10;;;;;;;6.40;1.88;;;;;;;;;;4953765;29;20060;-66
2021/12/23 11:05:49;;;;;;;3.72;1.48;;;;;;;;;;4934496;29;20063;-67
2021/12/23 11:39:31;;;;;;;5.97;0.90;;;;;;;;;;4933476;29;20063;-63
2021/12/23 11:42:15;;;;;;;5.78;1.40;;;;;;;;;;4930704;29;20056;-69
2021/12/23 11:44:47;;;;;;;4.60;1.23;;;;;;;;;;4923205;29;20048;-70
2021/12/23 11:47:18;;;;;;;3.65;1.00;;;;;;;;;;4940698;29;20099;-66
2021/12/23 11:49:49;;;;;;;3.53;1.00;;;;;;;;;;4935529;29;20055;-66
2021/12/23 11:52:19;;;;;;;4.30;1.13;;;;;;;;;;4949218;28;20055;-69
2021/12/23 11:54:50;;;;;;;7.15;1.48;;;;;;;;;;4940523;29;20047;-68
2021/12/23 11:57:28;;;;;;;5.88;1.40;;;;;;;;;;4948991;29;20805;-65
2021/12/23 12:00:37;;;;;;;4.85;1.15;;;;;;;;;;4945886;28;20052;-65
2021/12/23 12:03:04;;;;;;;9.65;1.00;;;;;;;;;;4972091;28;20049;-66
2021/12/23 12:05:37;;;;;;;4.93;1.10;;;;;;;;;;4971861;28;20055;-68
2021/12/23 12:08:14;;;;;;;8.63;1.33;;;;;;;;;;4933356;29;20063;-68
2021/12/23 12:10:45;;;;;;;11.77;1.38;;;;;;;;;;4933081;29;20171;-67
2021/12/23 12:13:17;;;;;;;7.60;1.25;;;;;;;;;;4931364;29;20056;-66
2021/12/23 12:15:50;;;;;;;5.10;1.67;;;;;;;;;;4916840;29;20052;-67
2021/12/23 12:18:23;;;;;;;3.15;1.40;;;;;;;;;;4912620;29;20456;-69
2021/12/23 12:21:00;;;;;;;7.65;1.70;;;;;;;;;;4929890;29;20435;-65
2021/12/23 12:23:36;;;;;;;2.90;1.13;;;;;;;;;;4937322;29;20060;-66
2021/12/23 12:26:10;;;;;;;7.95;1.13;;;;;;;;;;4916408;29;20054;-63
2021/12/23 12:28:47;;;;;;;7.53;1.33;;;;;;;;;;4918436;29;20059;-65
2021/12/23 12:31:22;;;;;;;8.75;1.00;;;;;;;;;;4913519;29;20064;-64
2021/12/23 12:34:13;;;;;;;6.82;1.60;;;;;;;;;;4933421;29;20427;-63
2021/12/23 12:36:48;;;;;;;4.60;1.10;;;;;;;;;;4893555;29;20056;-62
2021/12/23 12:39:24;;;;;;;6.50;1.73;;;;;;;;;;4900957;29;20437;-63
2021/12/23 12:42:09;;;;;;;6.32;1.27;;;;;;;;;;4903751;29;20055;-62
2021/12/23 12:44:51;;;;;;;3.38;1.40;;;;;;;;;;4918655;29;20063;-61
2021/12/23 12:47:27;;;;;;;4.70;1.02;;;;;;;;;;4921356;29;20056;-68
2021/12/23 12:50:14;;;;;;;9.70;3.40;;;;;;;;;;4912938;29;20052;-64
2021/12/23 12:52:50;;;;;;;7.45;1.05;;;;;;;;;;4880276;29;20053;-62
2021/12/23 12:55:25;;;;;;;4.28;0.90;;;;;;;;;;4918179;29;20064;-63
2021/12/23 12:58:04;;;;;;;4.47;1.50;;;;;;;;;;4888084;29;20513;-65
2021/12/23 13:00:43;;;;;;;5.60;1.35;;;;;;;;;;4903227;29;20540;-62
2021/12/23 13:03:17;;;;;;;8.65;1.83;;;;;;;;;;4903300;29;20205;-65
2021/12/23 13:05:52;;;;;;;5.25;1.45;;;;;;;;;;4902589;29;20064;-64
2021/12/23 13:08:29;;;;;;;3.90;1.23;;;;;;;;;;4904433;29;20071;-66
2021/12/23 13:11:21;;;;;;;4.05;1.63;;;;;;;;;;4917086;29;20063;-64
2021/12/23 13:14:15;;;;;;;7.00;1.17;;;;;;;;;;4916984;29;20052;-67
2021/12/23 13:16:58;;;;;;;6.18;1.42;;;;;;;;;;4922516;29;20055;-63
2021/12/23 13:19:35;;;;;;;4.03;0.88;;;;;;;;;;4931073;28;20047;-63
2021/12/23 13:22:08;;;;;;;9.20;1.27;;;;;;;;;;4943572;28;20688;-66
2021/12/23 13:24:38;;;;;;;6.88;1.30;;;;;;;;;;4932031;29;20059;-64
2021/12/23 13:27:08;;;;;;;6.45;1.65;;;;;;;;;;4908950;29;20062;-65
2021/12/23 13:29:41;;;;;;;11.95;3.33;;;;;;;;;;4970145;28;20070;-64
2021/12/23 13:32:11;;;;;;;6.90;1.42;;;;;;;;;;4979635;28;20061;-64
2021/12/23 13:34:42;;;;;;;7.90;2.15;;;;;;;;;;5032363;28;20057;-66
2021/12/23 13:37:12;;;;;;;9.68;1.55;;;;;;;;;;5048475;28;20472;-65
2021/12/23 13:39:43;;;;;;;3.95;1.20;;;;;;;;;;5032618;28;20053;-65
2021/12/23 13:42:13;;;;;;;9.55;1.30;;;;;;;;;;5032825;28;20049;-65
2021/12/23 13:44:47;;;;;;;6.25;1.15;;;;;;;;;;5048807;28;20067;-66
2021/12/23 13:47:22;;;;;;;10.70;1.45;;;;;;;;;;5032182;28;20040;-65
2021/12/23 13:49:55;;;;;;;4.43;1.27;;;;;;;;;;5028218;28;20041;-65
2021/12/23 13:52:35;;;;;;;3.10;0.80;;;;;;;;;;4998534;28;20060;-67
2021/12/23 13:55:09;;;;;;;2.83;0.80;;;;;;;;;;4980646;28;20058;-65
2021/12/23 13:57:46;;;;;;;4.32;0.75;;;;;;;;;;5002817;28;20557;-67
2021/12/23 14:00:30;;;;;;;5.50;1.38;;;;;;;;;;5003538;28;20537;-66
2021/12/23 14:03:09;;;;;;;4.85;0.60;;;;;;;;;;4980776;28;20050;-71
2021/12/23 14:05:40;;;;;;;4.03;1.10;;;;;;;;;;4986835;28;20615;-68
2021/12/23 14:08:13;;;;;;;6.15;0.77;;;;;;;;;;4982175;28;20065;-69
2021/12/23 14:10:46;;;;;;;5.28;0.82;;;;;;;;;;4986079;28;20058;-65
2021/12/23 14:13:20;;;;;;;4.00;0.80;;;;;;;;;;4971875;28;20050;-66
2021/12/23 14:16:02;;;;;;;7.15;0.98;;;;;;;;;;4937892;28;20051;-66
2021/12/23 14:19:15;;;;;;;4.00;0.88;;;;;;;;;;4963826;28;20462;-67
2021/12/23 14:24:41;;;;;;;5.45;0.80;;;;;;;;;;4944124;28;20078;-70
2021/12/23 14:27:12;;;;;;;7.38;0.80;;;;;;;;;;4952201;28;20223;-65
2021/12/23 14:29:45;;;;;;;3.53;0.73;;;;;;;;;;4934558;28;20046;-66
2021/12/23 14:32:15;;;;;;;3.10;0.80;;;;;;;;;;4987336;28;20050;-65
2021/12/23 14:34:46;;;;;;;6.22;1.10;;;;;;;;;;4988075;28;20421;-65
2021/12/23 14:37:16;;;;;;;7.57;0.90;;;;;;;;;;4982477;28;20059;-67
2021/12/23 14:39:47;;;;;;;4.95;1.00;;;;;;;;;;4945326;28;20054;-72
2021/12/23 14:42:20;;;;;;;7.47;1.08;;;;;;;;;;4973393;28;20458;-66
2021/12/23 14:45:08;;;;;;;4.30;0.77;;;;;;;;;;4964822;28;20055;-67
2021/12/23 14:47:38;;;;;;;2.38;0.73;;;;;;;;;;4952647;28;20059;-67
2021/12/23 14:52:54;;;;;;;5.28;1.10;;;;;;;;;;4948088;28;20055;-64
2021/12/23 14:55:32;;;;;;;5.18;0.90;;;;;;;;;;4943407;28;20078;-66
2021/12/23 14:58:05;;;;;;;2.97;0.88;;;;;;;;;;4949283;28;20047;-63
2021/12/23 15:00:43;;;;;;;4.40;1.00;;;;;;;;;;4946546;28;20446;-68
2021/12/23 15:03:20;;;;;;;6.40;1.00;;;;;;;;;;4972625;28;20050;-68
2021/12/23 15:05:53;;;;;;;6.00;0.88;;;;;;;;;;5001990;28;20054;-67
2021/12/23 15:08:31;;;;;;;4.40;0.60;;;;;;;;;;5005181;28;20042;-66
2021/12/23 15:11:10;;;;;;;7.22;1.15;;;;;;;;;;4972516;28;20073;-67
2021/12/23 15:13:45;;;;;;;4.18;0.90;;;;;;;;;;5004610;28;20046;-64
2021/12/23 15:16:27;;;;;;;4.85;1.05;;;;;;;;;;4983774;28;20054;-64
2021/12/23 15:19:17;;;;;;;3.65;1.23;;;;;;;;;;4961579;28;20431;-66
2021/12/23 15:21:54;;;;;;;2.85;0.88;;;;;;;;;;4958624;28;20151;-66
2021/12/23 15:24:35;;;;;;;5.03;1.02;;;;;;;;;;4891772;29;20056;-66
2021/12/23 15:27:24;;;;;;;6.18;1.30;;;;;;;;;;4891277;29;20068;-67
2021/12/23 15:30:01;;;;;;;4.85;1.13;;;;;;;;;;4910920;29;20052;-68
2021/12/23 15:32:36;;;;;;;6.75;0.82;;;;;;;;;;4896888;29;20060;-64
2021/12/23 15:35:13;;;;;;;5.03;1.10;;;;;;;;;;4893066;29;20049;-71
2021/12/23 15:37:50;;;;;;;18.20;1.00;;;;;;;;;;4927050;29;20055;-66
2021/12/23 15:40:32;;;;;;;10.20;1.20;;;;;;;;;;4914304;29;20064;-64
2021/12/23 15:43:09;;;;;;;7.10;1.00;;;;;;;;;;4911138;29;20056;-66
2021/12/23 15:45:40;;;;;;;5.22;1.10;;;;;;;;;;4912991;29;20052;-64
2021/12/23 15:48:11;;;;;;;4.50;0.75;;;;;;;;;;4912170;29;20067;-64
2021/12/23 15:50:41;;;;;;;5.35;1.00;;;;;;;;;;4912288;29;20060;-64
2021/12/23 15:53:12;;;;;;;2.50;0.80;;;;;;;;;;4919747;28;20078;-73
2021/12/23 15:55:43;;;;;;;8.73;0.90;;;;;;;;;;4950140;28;20058;-72
2021/12/23 15:58:14;;;;;;;3.63;1.08;;;;;;;;;;4951064;28;20431;-68
2021/12/23 16:00:44;;;;;;;7.38;0.88;;;;;;;;;;4915724;29;20044;-70
2021/12/23 16:03:14;;;;;;;6.22;0.85;;;;;;;;;;4946361;28;20054;-67
2021/12/23 16:08:16;;;;;;;4.40;0.98;;;;;;;;;;4967272;28;20059;-65
2021/12/23 16:10:46;;;;;;;5.47;0.73;;;;;;;;;;4968670;28;20048;-66
2021/12/23 16:13:16;;;;;;;4.10;1.10;;;;;;;;;;4966295;28;20063;-65
2021/12/23 16:15:46;;;;;;;5.65;0.90;;;;;;;;;;4997499;28;20053;-69
2021/12/23 16:18:17;;;;;;;3.00;0.80;;;;;;;;;;5023408;28;20058;-65
2021/12/23 16:20:48;;;;;;;4.70;0.82;;;;;;;;;;4982292;28;20050;-64
2021/12/23 16:23:18;;;;;;;4.80;1.00;;;;;;;;;;5030679;28;20073;-64
2021/12/23 16:25:48;;;;;;;3.47;0.98;;;;;;;;;;5030720;28;20053;-65
2021/12/23 16:28:21;;;;;;;6.07;0.90;;;;;;;;;;5030813;28;20058;-64
2021/12/23 16:30:52;;;;;;;4.38;1.05;;;;;;;;;;5014952;28;20049;-65
2021/12/23 16:33:22;;;;;;;2.95;0.88;;;;;;;;;;5030453;28;20065;-65
2021/12/23 16:35:52;;;;;;;6.57;1.45;;;;;;;;;;5030691;28;20081;-65
2021/12/23 16:38:22;;;;;;;5.25;1.30;;;;;;;;;;5030578;28;20056;-64
2021/12/23 16:40:54;;;;;;;6.95;1.13;;;;;;;;;;5023813;28;20053;-71